createdAt,value
2018-12-23T00:00:56.851Z,8.43
2018-12-23T00:03:24.348Z,8.71
2018-12-23T00:05:51.847Z,8.87
2018-12-23T00:08:19.408Z,8.88
2018-12-23T00:10:46.907Z,8.85
2018-12-23T00:13:14.555Z,9.03
2018-12-23T00:15:42.054Z,9.08
2018-12-23T00:18:09.548Z,8.94
2018-12-23T00:20:37.100Z,8.86
2018-12-23T00:23:04.603Z,8.84
2018-12-23T00:25:32.158Z,8.90
2018-12-23T00:27:59.663Z,8.88
2018-12-23T00:30:27.178Z,9.00
2018-12-23T00:32:54.824Z,8.97
2018-12-23T00:35:22.319Z,8.99
2018-12-23T00:37:50.047Z,8.96
2018-12-23T00:40:17.543Z,9.18
2018-12-23T00:42:45.136Z,9.12
2018-12-23T00:45:12.663Z,9.04
2018-12-23T00:47:40.196Z,9.09
2018-12-23T00:50:07.732Z,9.08
2018-12-23T00:52:35.239Z,9.24
2018-12-23T00:55:02.739Z,9.19
2018-12-23T00:57:30.265Z,9.22
2018-12-23T00:59:57.768Z,9.30
2018-12-23T01:02:25.443Z,9.27
2018-12-23T01:04:52.964Z,9.39
2018-12-23T01:07:20.467Z,9.44
2018-12-23T01:09:47.989Z,9.39
2018-12-23T01:12:15.497Z,9.33
2018-12-23T01:14:43.191Z,9.25
2018-12-23T01:17:10.691Z,9.24
2018-12-23T01:19:38.188Z,9.17
2018-12-23T01:22:05.715Z,9.20
2018-12-23T01:24:33.215Z,9.20
2018-12-23T01:27:00.767Z,9.09
2018-12-23T01:29:28.268Z,9.03
2018-12-23T01:31:55.994Z,9.03
2018-12-23T01:34:23.523Z,9.08
2018-12-23T01:36:51.023Z,9.10
2018-12-23T01:39:18.716Z,9.27
2018-12-23T01:41:46.220Z,9.03
2018-12-23T01:44:13.721Z,9.09
2018-12-23T01:46:41.256Z,9.07
2018-12-23T01:49:08.807Z,8.92
2018-12-23T01:51:36.516Z,8.83
2018-12-23T01:54:04.145Z,8.76
2018-12-23T01:56:31.645Z,8.68
2018-12-23T01:58:59.172Z,8.35
2018-12-23T02:01:26.691Z,8.19
2018-12-23T02:03:54.360Z,8.12
2018-12-23T02:06:21.864Z,7.90
2018-12-23T02:08:49.371Z,7.88
2018-12-23T02:11:16.899Z,7.83
2018-12-23T02:13:44.396Z,7.57
2018-12-23T02:16:12.212Z,7.41
2018-12-23T02:18:39.707Z,7.56
2018-12-23T02:21:07.212Z,7.46
2018-12-23T02:23:34.964Z,7.43
2018-12-23T02:26:02.459Z,7.30
2018-12-23T02:28:30.591Z,7.33
2018-12-23T02:30:58.099Z,7.31
2018-12-23T02:33:25.617Z,7.35
2018-12-23T02:35:55.785Z,7.39
2018-12-23T02:38:22.676Z,7.34
2018-12-23T02:40:50.243Z,7.36
2018-12-23T02:43:17.769Z,7.33
2018-12-23T02:45:45.278Z,7.23
2018-12-23T02:48:12.808Z,7.28
2018-12-23T02:50:40.323Z,7.33
2018-12-23T02:53:07.853Z,7.38
2018-12-23T02:55:35.376Z,7.33
2018-12-23T02:58:02.871Z,7.27
2018-12-23T03:00:30.415Z,7.22
2018-12-23T03:02:57.907Z,7.23
2018-12-23T03:05:25.453Z,7.02
2018-12-23T03:07:52.964Z,6.86
2018-12-23T03:10:20.502Z,6.83
2018-12-23T03:12:48.012Z,6.87
2018-12-23T03:15:15.511Z,6.80
2018-12-23T03:17:43.065Z,6.77
2018-12-23T03:20:10.767Z,6.70
2018-12-23T03:22:38.584Z,6.54
2018-12-23T03:25:06.192Z,6.83
2018-12-23T03:27:33.922Z,7.12
2018-12-23T03:30:01.452Z,6.95
2018-12-23T03:32:28.952Z,6.94
2018-12-23T03:34:56.675Z,6.95
2018-12-23T03:37:24.179Z,7.09
2018-12-23T03:39:51.683Z,7.04
2018-12-23T03:42:19.217Z,7.04
2018-12-23T03:44:46.743Z,6.97
2018-12-23T03:47:14.304Z,7.03
2018-12-23T03:49:41.824Z,6.92
2018-12-23T03:52:09.320Z,6.78
2018-12-23T03:54:36.843Z,6.76
2018-12-23T03:57:04.343Z,6.75
2018-12-23T03:59:32.149Z,6.72
2018-12-23T04:01:59.649Z,6.69
2018-12-23T04:04:27.145Z,6.71
2018-12-23T04:06:54.677Z,6.59
2018-12-23T04:09:22.189Z,6.43
2018-12-23T04:11:49.871Z,6.44
2018-12-23T04:14:17.367Z,6.54
2018-12-23T04:16:44.868Z,6.45
2018-12-23T04:19:12.423Z,6.41
2018-12-23T04:21:39.932Z,6.47
2018-12-23T04:24:07.467Z,6.36
2018-12-23T04:26:34.967Z,6.42
2018-12-23T04:29:02.495Z,6.40
2018-12-23T04:31:29.999Z,6.33
2018-12-23T04:33:57.503Z,6.37
2018-12-23T04:36:33.818Z,6.35
2018-12-23T04:38:54.572Z,6.30
2018-12-23T04:41:22.107Z,6.33
2018-12-23T04:43:49.615Z,6.30
2018-12-23T04:46:17.119Z,6.28
2018-12-23T04:48:44.654Z,6.31
2018-12-23T04:51:12.158Z,6.32
2018-12-23T04:53:39.752Z,6.30
2018-12-23T04:56:07.279Z,6.41
2018-12-23T04:58:34.788Z,6.48
2018-12-23T05:01:02.340Z,6.47
2018-12-23T05:03:29.840Z,6.68
2018-12-23T05:05:57.511Z,6.73
2018-12-23T05:08:25.008Z,6.88
2018-12-23T05:10:52.515Z,6.93
2018-12-23T05:13:20.043Z,7.03
2018-12-23T05:15:47.548Z,7.09
2018-12-23T05:18:15.203Z,7.00
2018-12-23T05:20:42.699Z,7.00
2018-12-23T05:23:10.201Z,7.08
2018-12-23T05:25:37.743Z,7.09
2018-12-23T05:28:05.272Z,7.09
2018-12-23T05:30:32.841Z,7.16
2018-12-23T05:33:00.356Z,7.31
2018-12-23T05:35:28.061Z,7.41
2018-12-23T05:37:55.608Z,7.59
2018-12-23T05:40:23.152Z,7.73
2018-12-23T05:42:50.696Z,7.91
2018-12-23T05:45:18.207Z,7.99
2018-12-23T05:47:45.717Z,8.08
2018-12-23T05:50:13.243Z,8.12
2018-12-23T05:52:40.739Z,8.09
2018-12-23T05:55:08.604Z,8.17
2018-12-23T05:57:36.103Z,8.20
2018-12-23T06:00:04.122Z,8.16
2018-12-23T06:02:31.651Z,8.21
2018-12-23T06:04:59.172Z,8.27
2018-12-23T06:10:00.455Z,8.40
2018-12-23T06:12:27.999Z,8.52
2018-12-23T06:14:55.499Z,8.57
2018-12-23T06:17:22.991Z,8.64
2018-12-23T06:19:50.539Z,8.70
2018-12-23T06:22:18.043Z,8.80
2018-12-23T06:24:45.572Z,8.78
2018-12-23T06:27:13.127Z,8.77
2018-12-23T06:29:40.655Z,8.69
2018-12-23T06:32:08.164Z,8.78
2018-12-23T06:34:35.792Z,8.80
2018-12-23T06:37:09.897Z,8.78
2018-12-23T06:39:32.827Z,8.72
2018-12-23T06:42:00.350Z,8.76
2018-12-23T06:44:27.845Z,8.82
2018-12-23T06:46:55.413Z,8.81
2018-12-23T06:49:22.975Z,8.85
2018-12-23T06:51:50.559Z,8.83
2018-12-23T06:54:18.099Z,8.80
2018-12-23T06:56:45.599Z,8.90
2018-12-23T06:59:13.165Z,9.08
2018-12-23T07:01:40.683Z,9.02
2018-12-23T07:04:08.183Z,8.95
2018-12-23T07:06:35.712Z,8.90
2018-12-23T07:09:04.522Z,8.88
2018-12-23T07:11:32.375Z,8.86
2018-12-23T07:13:59.879Z,8.84
2018-12-23T07:16:27.375Z,8.87
2018-12-23T07:18:54.899Z,8.89
2018-12-23T07:21:22.400Z,8.97
2018-12-23T07:23:50.256Z,8.92
2018-12-23T07:26:17.756Z,8.90
2018-12-23T07:28:45.257Z,8.90
2018-12-23T07:31:12.779Z,8.94
2018-12-23T07:33:40.277Z,8.96
2018-12-23T07:36:07.959Z,8.93
2018-12-23T07:38:35.455Z,8.98
2018-12-23T07:41:02.973Z,8.94
2018-12-23T07:43:30.580Z,8.94
2018-12-23T07:45:58.083Z,8.94
2018-12-23T07:48:25.751Z,8.87
2018-12-23T07:50:53.877Z,8.88
2018-12-23T07:53:21.519Z,8.92
2018-12-23T07:55:49.047Z,8.91
2018-12-23T07:58:16.575Z,8.97
2018-12-23T08:00:44.371Z,8.95
2018-12-23T08:03:11.889Z,9.04
2018-12-23T08:05:39.388Z,8.99
2018-12-23T08:08:06.911Z,8.95
2018-12-23T08:10:34.435Z,9.15
2018-12-23T08:13:01.964Z,9.03
2018-12-23T08:15:29.458Z,9.03
2018-12-23T08:17:56.957Z,9.03
2018-12-23T08:20:24.504Z,9.05
2018-12-23T08:22:52.019Z,9.05
2018-12-23T08:25:19.656Z,9.07
2018-12-23T08:27:47.167Z,9.07
2018-12-23T08:30:14.683Z,9.06
2018-12-23T08:32:42.207Z,9.05
2018-12-23T08:35:09.703Z,9.10
2018-12-23T08:37:44.404Z,9.28
2018-12-23T08:40:06.827Z,9.28
2018-12-23T08:42:34.343Z,9.21
2018-12-23T08:45:01.868Z,9.21
2018-12-23T08:47:29.363Z,9.23
2018-12-23T08:49:56.923Z,9.38
2018-12-23T08:52:24.432Z,9.27
2018-12-23T08:54:51.933Z,9.43
2018-12-23T08:57:19.459Z,9.42
2018-12-23T08:59:46.959Z,9.47
2018-12-23T09:02:14.796Z,9.45
2018-12-23T09:04:42.315Z,9.57
2018-12-23T09:07:09.811Z,9.53
2018-12-23T09:09:37.346Z,9.55
2018-12-23T09:12:04.847Z,9.56
2018-12-23T09:14:32.392Z,9.62
2018-12-23T09:16:59.891Z,9.71
2018-12-23T09:19:27.392Z,9.63
2018-12-23T09:21:54.983Z,9.71
2018-12-23T09:24:22.559Z,9.74
2018-12-23T09:26:50.127Z,9.76
2018-12-23T09:29:17.627Z,9.73
2018-12-23T09:31:45.143Z,9.79
2018-12-23T09:34:12.676Z,9.72
2018-12-23T09:36:40.184Z,9.83
2018-12-23T09:39:07.984Z,9.82
2018-12-23T09:41:35.487Z,9.85
2018-12-23T09:44:03.011Z,9.90
2018-12-23T09:46:30.559Z,9.90
2018-12-23T09:48:58.056Z,9.93
2018-12-23T09:51:25.619Z,9.99
2018-12-23T09:53:53.117Z,9.96
2018-12-23T09:56:20.620Z,9.93
2018-12-23T09:58:48.155Z,10.00
2018-12-23T10:01:15.679Z,9.99
2018-12-23T10:03:43.216Z,10.01
2018-12-23T10:06:10.715Z,9.99
2018-12-23T10:08:38.248Z,10.02
2018-12-23T10:11:05.954Z,10.12
2018-12-23T10:13:33.455Z,10.16
2018-12-23T10:16:00.991Z,10.23
2018-12-23T10:18:28.511Z,9.98
2018-12-23T10:20:56.275Z,9.97
2018-12-23T10:23:23.784Z,10.07
2018-12-23T10:25:51.282Z,9.99
2018-12-23T10:28:18.815Z,10.09
2018-12-23T10:30:46.319Z,10.12
2018-12-23T10:33:13.862Z,10.07
2018-12-23T10:35:41.368Z,10.09
2018-12-23T10:38:08.903Z,10.08
2018-12-23T10:40:36.407Z,10.05
2018-12-23T10:43:03.907Z,10.12
2018-12-23T10:45:31.436Z,10.18
2018-12-23T10:47:58.935Z,10.28
2018-12-23T10:50:26.475Z,10.27
2018-12-23T10:52:53.979Z,10.27
2018-12-23T10:55:21.611Z,10.24
2018-12-23T10:57:49.173Z,10.21
2018-12-23T11:00:16.678Z,10.29
2018-12-23T11:02:44.224Z,10.27
2018-12-23T11:05:11.768Z,10.22
2018-12-23T11:07:39.417Z,10.39
2018-12-23T11:10:06.924Z,10.30
2018-12-23T11:12:34.428Z,10.41
2018-12-23T11:15:01.961Z,10.26
2018-12-23T11:17:29.463Z,10.27
2018-12-23T11:19:57.207Z,10.33
2018-12-23T11:22:24.736Z,10.30
2018-12-23T11:24:52.265Z,10.46
2018-12-23T11:27:19.807Z,10.35
2018-12-23T11:29:47.311Z,10.24
2018-12-23T11:32:14.863Z,10.24
2018-12-23T11:34:42.368Z,10.24
2018-12-23T11:37:09.914Z,10.32
2018-12-23T11:39:37.447Z,10.32
2018-12-23T11:42:04.959Z,10.21
2018-12-23T11:44:32.509Z,10.22
2018-12-23T11:47:00.042Z,10.10
2018-12-23T11:49:27.588Z,10.01
2018-12-23T11:51:55.092Z,10.25
2018-12-23T11:54:22.652Z,10.09
2018-12-23T11:56:50.159Z,10.09
2018-12-23T11:59:17.663Z,9.99
2018-12-23T12:01:45.211Z,9.96
2018-12-23T12:04:12.709Z,9.94
2018-12-23T12:06:40.253Z,10.02
2018-12-23T12:09:07.858Z,9.92
2018-12-23T12:11:35.495Z,9.89
2018-12-23T12:14:03.119Z,9.89
2018-12-23T12:16:30.778Z,9.96
2018-12-23T12:18:58.299Z,9.89
2018-12-23T12:21:25.806Z,9.94
2018-12-23T12:23:53.354Z,9.87
2018-12-23T12:26:20.863Z,9.87
2018-12-23T12:28:48.568Z,9.84
2018-12-23T12:31:16.076Z,10.00
2018-12-23T12:33:43.592Z,9.89
2018-12-23T12:36:11.128Z,9.83
2018-12-23T12:38:38.635Z,9.83
2018-12-23T12:41:06.590Z,9.85
2018-12-23T12:43:34.091Z,9.79
2018-12-23T12:46:01.595Z,9.87
2018-12-23T12:48:29.127Z,9.83
2018-12-23T12:50:56.631Z,9.80
2018-12-23T12:53:24.195Z,9.83
2018-12-23T12:55:51.695Z,9.85
2018-12-23T12:58:19.202Z,9.80
2018-12-23T13:00:46.734Z,9.84
2018-12-23T13:03:14.236Z,9.77
2018-12-23T13:05:41.979Z,9.81
2018-12-23T13:08:09.532Z,9.80
2018-12-23T13:10:37.116Z,9.72
2018-12-23T13:13:04.644Z,9.72
2018-12-23T13:15:32.159Z,9.58
2018-12-23T13:21:32.952Z,9.69
2018-12-23T13:24:01.570Z,9.52
2018-12-23T13:26:49.468Z,9.54
2018-12-23T13:32:10.942Z,9.52
2018-12-23T13:34:58.880Z,9.52
2018-12-23T13:37:27.463Z,9.49
2018-12-23T13:40:15.413Z,9.54
2018-12-23T13:43:22.592Z,9.53
2018-12-23T13:46:31.164Z,9.44
2018-12-23T13:49:39.660Z,9.49
2018-12-23T13:52:48.473Z,9.43
2018-12-23T13:55:55.650Z,9.35
2018-12-23T13:59:04.202Z,9.37
2018-12-23T14:02:11.376Z,9.34
2018-12-23T14:05:19.913Z,9.40
2018-12-23T14:08:28.488Z,9.27
2018-12-23T14:11:35.769Z,9.29
2018-12-23T14:14:23.684Z,9.31
2018-12-23T14:17:11.572Z,9.27
2018-12-23T14:19:59.347Z,9.38
2018-12-23T14:22:28.004Z,9.26
2018-12-23T14:24:56.618Z,9.20
2018-12-23T14:27:44.580Z,9.19
2018-12-23T14:30:32.364Z,9.31
2018-12-23T14:36:16.750Z,9.13
2018-12-23T14:39:04.784Z,9.14
2018-12-23T14:41:54.533Z,9.12
2018-12-23T14:44:42.364Z,9.06
2018-12-23T14:47:10.948Z,8.99
2018-12-23T14:49:39.545Z,9.03
2018-12-23T14:52:27.350Z,9.02
2018-12-23T14:55:15.072Z,8.97
2018-12-23T14:57:43.745Z,8.87
2018-12-23T15:00:12.397Z,8.69
2018-12-23T15:02:40.987Z,8.55
2018-12-23T15:05:09.664Z,8.65
2018-12-23T15:07:57.456Z,8.64
2018-12-23T15:10:26.082Z,8.59
2018-12-23T15:13:34.774Z,8.61
2018-12-23T15:15:52.803Z,8.70
2018-12-23T15:21:28.053Z,8.69
2018-12-23T15:24:15.957Z,8.61
2018-12-23T15:27:03.917Z,8.71
2018-12-23T15:29:51.837Z,8.64
2018-12-23T15:35:14.098Z,8.58
2018-12-23T15:37:42.860Z,8.46
2018-12-23T15:40:11.442Z,8.45
2018-12-23T15:42:40.036Z,8.52
2018-12-23T15:45:08.870Z,8.61
2018-12-23T15:47:37.481Z,8.67
2018-12-23T15:50:06.748Z,8.51
2018-12-23T15:52:35.352Z,8.49
2018-12-23T15:55:04.112Z,8.60
2018-12-23T15:57:32.763Z,8.59
2018-12-23T16:00:01.344Z,8.66
2018-12-23T16:02:30.113Z,8.75
2018-12-23T16:04:58.716Z,8.76
2018-12-23T16:07:27.337Z,8.68
2018-12-23T16:09:55.983Z,8.64
2018-12-23T16:12:24.613Z,8.74
2018-12-23T16:14:53.337Z,8.76
2018-12-23T16:17:21.918Z,8.76
2018-12-23T16:19:50.774Z,8.77
2018-12-23T16:22:19.421Z,8.61
2018-12-23T16:24:48.311Z,8.71
2018-12-23T16:27:16.963Z,8.77
2018-12-23T16:29:45.544Z,8.75
2018-12-23T16:32:14.171Z,8.76
2018-12-23T16:34:42.877Z,8.68
2018-12-23T16:37:11.504Z,8.76
2018-12-23T16:39:40.087Z,8.78
2018-12-23T16:42:08.698Z,8.83
2018-12-23T16:44:37.384Z,8.81
2018-12-23T16:47:06.031Z,8.80
2018-12-23T16:49:34.821Z,8.81
2018-12-23T16:52:03.424Z,8.81
2018-12-23T16:54:32.004Z,8.69
2018-12-23T16:57:00.624Z,8.65
2018-12-23T16:59:29.220Z,8.74
2018-12-23T17:01:57.924Z,8.72
2018-12-23T17:04:26.600Z,8.69
2018-12-23T17:06:55.325Z,8.66
2018-12-23T17:09:23.936Z,8.70
2018-12-23T17:11:52.596Z,8.73
2018-12-23T17:14:21.283Z,8.70
2018-12-23T17:16:49.885Z,8.70
2018-12-23T17:19:18.635Z,8.70
2018-12-23T17:21:47.259Z,8.72
2018-12-23T17:24:15.912Z,8.72
2018-12-23T17:26:44.705Z,8.74
2018-12-23T17:29:13.319Z,8.74
2018-12-23T17:31:41.909Z,8.71
2018-12-23T17:34:10.530Z,8.70
2018-12-23T17:36:39.183Z,8.75
2018-12-23T17:39:08.223Z,8.73
2018-12-23T17:41:36.882Z,8.66
2018-12-23T17:44:05.460Z,8.72
2018-12-23T17:46:34.140Z,8.64
2018-12-23T17:49:02.800Z,8.65
2018-12-23T17:51:31.424Z,8.64
2018-12-23T17:54:00.012Z,8.64
2018-12-23T17:56:28.660Z,8.73
2018-12-23T17:58:57.361Z,8.71
2018-12-23T18:01:25.943Z,8.60
2018-12-23T18:04:02.037Z,8.40
2018-12-23T18:06:25.191Z,8.48
2018-12-23T18:08:54.110Z,8.58
2018-12-23T18:11:22.880Z,8.58
2018-12-23T18:13:51.495Z,8.55
2018-12-23T18:16:20.252Z,8.57
2018-12-23T18:18:48.809Z,8.53
2018-12-23T18:21:17.605Z,8.55
2018-12-23T18:23:46.272Z,8.57
2018-12-23T18:26:14.928Z,8.56
2018-12-23T18:28:43.634Z,8.59
2018-12-23T18:31:12.303Z,8.70
2018-12-23T18:33:41.171Z,8.77
2018-12-23T18:36:09.826Z,8.74
2018-12-23T18:38:38.405Z,8.69
2018-12-23T18:41:07.158Z,8.80
2018-12-23T18:43:35.746Z,8.77
2018-12-23T18:46:04.608Z,8.86
2018-12-23T18:48:33.202Z,8.91
2018-12-23T18:51:01.932Z,8.92
2018-12-23T18:53:30.628Z,8.97
2018-12-23T18:55:59.240Z,8.95
2018-12-23T18:58:28.136Z,8.93
2018-12-23T19:00:56.801Z,8.97
2018-12-23T19:03:25.383Z,9.03
2018-12-23T19:05:54.123Z,9.12
2018-12-23T19:08:23.535Z,9.14
2018-12-23T19:11:15.176Z,9.19
2018-12-23T19:14:12.639Z,9.27
2018-12-23T19:16:50.348Z,9.26
2018-12-23T19:19:40.222Z,9.26
2018-12-23T19:22:14.937Z,9.22
2018-12-23T19:24:52.360Z,9.32
2018-12-23T19:27:24.145Z,9.56
2018-12-23T19:30:15.496Z,9.52
2018-12-23T19:32:49.891Z,9.65
2018-12-23T19:35:43.975Z,9.58
2018-12-23T19:38:18.703Z,9.65
2018-12-23T19:41:02.568Z,9.72
2018-12-23T19:43:50.918Z,9.65
2018-12-23T19:46:40.713Z,9.67
2018-12-23T19:49:51.173Z,9.93
2018-12-23T19:52:46.701Z,10.26
2018-12-23T19:55:39.517Z,10.36
2018-12-23T19:58:37.029Z,10.76
2018-12-23T20:01:11.469Z,10.92
2018-12-23T20:03:48.983Z,11.07
2018-12-23T20:06:41.419Z,11.25
2018-12-23T20:09:22.140Z,11.38
2018-12-23T20:11:59.669Z,11.45
2018-12-23T20:14:43.650Z,11.55
2018-12-23T20:17:24.480Z,11.63
2018-12-23T20:20:11.001Z,11.68
2018-12-23T20:22:45.508Z,11.75
2018-12-23T20:25:29.300Z,11.84
2018-12-23T20:28:25.309Z,11.93
2018-12-23T20:31:00.001Z,11.90
2018-12-23T20:33:43.641Z,12.00
2018-12-23T20:36:42.516Z,12.04
2018-12-23T20:39:37.341Z,12.10
2018-12-23T20:42:27.511Z,12.12
2018-12-23T20:45:18.371Z,12.19
2018-12-23T20:48:02.168Z,12.25
2018-12-23T20:51:02.906Z,12.22
2018-12-23T20:53:54.146Z,12.38
2018-12-23T20:56:56.495Z,12.38
2018-12-23T20:59:31.008Z,12.31
2018-12-23T21:02:11.610Z,12.42
2018-12-23T21:04:55.068Z,12.38
2018-12-23T21:07:32.746Z,12.42
2018-12-23T21:10:31.381Z,12.46
2018-12-23T21:13:05.754Z,12.55
2018-12-23T21:15:46.296Z,12.54
2018-12-23T21:18:39.511Z,12.61
2018-12-23T21:21:36.779Z,12.66
2018-12-23T21:24:25.456Z,12.69
2018-12-23T21:27:21.196Z,12.69
2018-12-23T21:30:01.891Z,12.65
2018-12-23T21:33:07.055Z,12.78
2018-12-23T21:36:05.777Z,12.76
2018-12-23T21:39:14.282Z,12.75
2018-12-23T21:42:22.889Z,12.75
2018-12-23T21:45:30.071Z,12.89
2018-12-23T21:48:37.286Z,12.77
2018-12-23T21:51:44.462Z,12.81
2018-12-23T21:54:53.004Z,12.80
2018-12-23T21:58:00.187Z,12.82
2018-12-23T22:01:07.438Z,12.85
2018-12-23T22:04:15.997Z,12.90
2018-12-23T22:07:23.304Z,12.91
2018-12-23T22:10:31.899Z,12.92
2018-12-23T22:13:39.108Z,12.93
2018-12-23T22:16:07.720Z,12.98
2018-12-23T22:21:29.234Z,12.94
2018-12-23T22:23:57.866Z,12.94
2018-12-23T22:26:26.472Z,12.99
2018-12-23T22:28:55.104Z,13.00
2018-12-23T22:31:42.878Z,12.98
2018-12-23T22:34:30.729Z,12.99
2018-12-23T22:36:59.298Z,13.09
2018-12-23T22:39:47.091Z,12.99
2018-12-23T22:42:15.889Z,13.03
2018-12-23T22:44:44.460Z,12.99
2018-12-23T22:47:13.081Z,12.96
2018-12-23T22:49:41.658Z,13.08
2018-12-23T22:52:29.532Z,13.09
2018-12-23T22:54:58.111Z,13.03
2018-12-23T22:57:45.917Z,13.03
2018-12-23T23:00:54.412Z,13.00
2018-12-23T23:03:23.028Z,13.07
2018-12-23T23:05:51.683Z,13.10
2018-12-23T23:11:13.635Z,13.12
2018-12-23T23:14:01.640Z,13.12
2018-12-23T23:16:49.434Z,13.07
2018-12-23T23:21:52.544Z,13.09
2018-12-23T23:24:40.285Z,13.12
2018-12-23T23:33:09.480Z,13.12
2018-12-23T23:35:38.097Z,13.05
2018-12-23T23:38:26.002Z,13.05
2018-12-23T23:43:48.358Z,12.97
2018-12-23T23:46:36.290Z,13.01
2018-12-23T23:49:24.196Z,12.97
2018-12-23T23:51:52.920Z,13.02
2018-12-23T23:54:40.625Z,12.96
2018-12-23T23:57:09.249Z,12.93
2018-12-23T23:59:57.023Z,12.92
